Time;durP1;ratioP1;P1;durP2;ratioP2;P2;SDS_P1;SDS_P2;PMS_P1;PMS_P2;Temp;Humidity;BMP_temperature;BMP_pressure;BME280_temperature;BME280_humidity;BME280_pressure;Samples;Min_cycle;Max_cycle;Signal;HPM_P1;HPM_P2
2022/08/30 00:01:23;;;;;;;;;;;;;;;28.97;80.24;154949.16;1679921;84;20141;-61
2022/08/30 00:03:49;;;;;;;;;;;;;;;29.20;79.47;155006.92;1678664;84;21005;-61
2022/08/30 00:06:17;;;;;;;;;;;;;;;29.36;78.21;155046.28;1697148;84;20209;-72
2022/08/30 00:08:43;;;;;;;;;;;;;;;29.29;77.55;155029.20;1707878;84;21226;-71
2022/08/30 00:11:12;;;;;;;;;;;;;;;29.03;77.71;154963.56;1707813;84;20406;-72
2022/08/30 00:13:40;;;;;;;;;;;;;;;28.81;79.29;154908.42;1706988;84;20188;-61
2022/08/30 00:16:07;;;;;;;;;;;;;;;28.83;79.93;154913.66;1705194;84;20225;-61
2022/08/30 00:18:34;;;;;;;;;;;;;;;28.97;79.75;154947.81;1705095;84;20632;-62
2022/08/30 00:21:01;;;;;;;;;;;;;;;29.13;79.34;154988.50;1705045;84;21146;-61
2022/08/30 00:23:28;;;;;;;;;;;;;;;29.33;78.54;155038.41;1706058;84;20149;-62
2022/08/30 00:25:55;;;;;;;;;;;;;;;29.32;77.67;155037.13;1705776;84;20216;-62
2022/08/30 00:28:22;;;;;;;;;;;;;;;29.13;78.00;154988.50;1706072;84;21084;-62
2022/08/30 00:30:50;;;;;;;;;;;;;;;28.84;79.15;154915.00;1696977;84;20194;-61
2022/08/30 00:33:16;;;;;;;;;;;;;;;28.78;80.37;154900.50;1695698;84;21263;-61
2022/08/30 00:35:44;;;;;;;;;;;;;;;28.91;80.55;154932.08;1695613;84;20204;-61
2022/08/30 00:38:12;;;;;;;;;;;;;;;29.12;79.97;154987.22;1695927;84;20464;-61
2022/08/30 00:40:40;;;;;;;;;;;;;;;29.35;79.38;155043.66;1696177;84;20589;-61
2022/08/30 00:43:08;;;;;;;;;;;;;;;29.49;78.20;155079.16;1695937;84;20190;-62
2022/08/30 00:45:36;;;;;;;;;;;;;;;29.41;77.64;155059.50;1674471;84;21846;-62
2022/08/30 00:48:04;;;;;;;;;;;;;;;29.13;77.78;154989.84;1699045;82;20596;-71
2022/08/30 00:50:33;;;;;;;;;;;;;;;28.84;78.50;154916.28;1734401;82;20421;-71
2022/08/30 00:53:01;;;;;;;;;;;;;;;28.71;79.27;154882.14;1733829;82;20200;-61
2022/08/30 00:55:27;;;;;;;;;;;;;;;28.62;79.90;154859.81;1734155;82;20176;-61
2022/08/30 00:57:57;;;;;;;;;;;;;;;28.51;80.30;154832.25;1733636;82;21141;-61
2022/08/30 01:00:24;;;;;;;;;;;;;;;28.28;80.83;154774.50;1733505;82;20176;-61
2022/08/30 01:02:51;;;;;;;;;;;;;;;28.01;82.21;154706.23;1733718;82;20872;-62
2022/08/30 01:05:17;;;;;;;;;;;;;;;27.89;84.09;154674.72;1725376;82;20965;-62
2022/08/30 01:07:44;;;;;;;;;;;;;;;27.83;85.04;154658.98;1706349;84;20176;-61
2022/08/30 01:10:12;;;;;;;;;;;;;;;27.76;86.04;154640.63;1706385;84;21100;-61
2022/08/30 01:12:39;;;;;;;;;;;;;;;27.76;86.89;154640.63;1706990;83;20296;-62
2022/08/30 01:15:07;;;;;;;;;;;;;;;27.79;87.35;154649.78;1706335;83;20207;-61
2022/08/30 01:17:34;;;;;;;;;;;;;;;27.87;87.84;154669.47;1706863;83;20740;-61
2022/08/30 01:20:07;;;;;;;;;;;;;;;27.94;88.51;154687.83;1706425;84;20211;-62
2022/08/30 01:22:54;;;;;;;;;;;;;;;28.06;88.46;154716.72;1706682;84;21215;-60
2022/08/30 01:25:24;;;;;;;;;;;;;;;28.12;88.38;154733.78;1706488;84;20205;-60
2022/08/30 01:28:02;;;;;;;;;;;;;;;28.08;88.55;154721.97;1706803;84;20203;-60
2022/08/30 01:30:29;;;;;;;;;;;;;;;28.04;89.56;154712.77;1713659;83;20169;-60
2022/08/30 01:32:58;;;;;;;;;;;;;;;28.08;89.96;154723.30;1718556;83;20240;-60
2022/08/30 01:35:25;;;;;;;;;;;;;;;28.14;90.19;154737.69;1718226;83;21254;-60
2022/08/30 01:37:52;;;;;;;;;;;;;;;28.25;90.37;154766.64;1718325;83;20181;-61
2022/08/30 01:40:19;;;;;;;;;;;;;;;28.37;90.24;154795.48;1718203;83;20141;-61
2022/08/30 01:42:46;;;;;;;;;;;;;;;28.40;88.99;154803.36;1696028;83;39273;-61
2022/08/30 01:45:13;;;;;;;;;;;;;;;28.24;88.23;154764.02;1718211;83;20185;-61
2022/08/30 01:47:41;;;;;;;;;;;;;;;28.01;88.47;154706.23;1718338;83;21233;-60
2022/08/30 01:50:08;;;;;;;;;;;;;;;27.90;89.86;154677.34;1701686;83;20231;-60
2022/08/30 01:52:35;;;;;;;;;;;;;;;28.05;90.25;154714.09;1701310;84;20202;-59
2022/08/30 01:55:02;;;;;;;;;;;;;;;28.25;88.88;154766.64;1700747;84;20804;-60
2022/08/30 01:57:29;;;;;;;;;;;;;;;28.31;88.15;154782.37;1700956;84;20194;-61
2022/08/30 01:59:56;;;;;;;;;;;;;;;28.38;87.82;154798.11;1684527;84;21235;-61
2022/08/30 02:02:24;;;;;;;;;;;;;;;28.40;87.01;154803.36;1671822;85;20125;-61
2022/08/30 02:04:52;;;;;;;;;;;;;;;28.30;86.52;154778.47;1672640;83;20217;-61
2022/08/30 02:07:20;;;;;;;;;;;;;;;28.07;87.14;154719.34;1717916;83;20133;-60
2022/08/30 02:09:46;;;;;;;;;;;;;;;28.00;88.69;154703.61;1718397;83;20425;-60
2022/08/30 02:12:14;;;;;;;;;;;;;;;28.15;88.76;154741.70;1715646;83;20823;-60
2022/08/30 02:14:41;;;;;;;;;;;;;;;28.32;87.67;154783.72;1700714;84;20193;-60
2022/08/30 02:17:09;;;;;;;;;;;;;;;28.38;87.12;154798.11;1700835;84;20207;-61
2022/08/30 02:19:35;;;;;;;;;;;;;;;28.39;87.24;154802.06;1701291;84;20825;-61
2022/08/30 02:22:02;;;;;;;;;;;;;;;28.40;86.96;154803.36;1700776;84;20186;-61
2022/08/30 02:24:29;;;;;;;;;;;;;;;28.35;86.93;154790.25;1701020;84;21261;-61
2022/08/30 02:26:56;;;;;;;;;;;;;;;28.25;87.72;154765.31;1700494;84;20234;-60
2022/08/30 02:29:23;;;;;;;;;;;;;;;28.23;88.54;154761.39;1700680;84;20147;-60
2022/08/30 02:31:50;;;;;;;;;;;;;;;28.27;88.89;154771.89;1708168;84;20202;-60
2022/08/30 02:34:16;;;;;;;;;;;;;;;28.38;88.78;154798.11;1708259;84;20177;-61
2022/08/30 02:36:43;;;;;;;;;;;;;;;28.49;89.01;154825.67;1708353;84;21241;-61
2022/08/30 02:39:10;;;;;;;;;;;;;;;28.61;87.88;154857.19;1709016;84;20488;-62
2022/08/30 02:41:38;;;;;;;;;;;;;;;28.52;87.29;154834.88;1709325;84;20178;-70
2022/08/30 02:44:05;;;;;;;;;;;;;;;28.35;87.68;154791.58;1708921;84;20231;-71
2022/08/30 02:46:34;;;;;;;;;;;;;;;28.25;88.98;154766.64;1708954;84;20709;-72
2022/08/30 02:49:00;;;;;;;;;;;;;;;28.29;89.40;154777.12;1724884;82;22828;-71
2022/08/30 02:51:27;;;;;;;;;;;;;;;28.41;89.15;154806.03;1741566;82;20195;-72
2022/08/30 02:53:54;;;;;;;;;;;;;;;28.49;88.40;154827.00;1741719;82;20175;-71
2022/08/30 02:56:20;;;;;;;;;;;;;;;28.50;87.81;154829.63;1741653;82;20947;-71
2022/08/30 02:58:47;;;;;;;;;;;;;;;28.48;87.28;154823.05;1741584;82;20474;-62
2022/08/30 03:01:14;;;;;;;;;;;;;;;28.33;87.12;154785.00;1741393;82;21939;-61
2022/08/30 03:03:41;;;;;;;;;;;;;;;28.15;88.24;154741.70;1741477;82;20175;-61
2022/08/30 03:06:09;;;;;;;;;;;;;;;28.13;88.63;154735.06;1722444;82;20200;-60
2022/08/30 03:08:36;;;;;;;;;;;;;;;28.15;88.61;154740.31;1709423;84;22007;-61
2022/08/30 03:11:03;;;;;;;;;;;;;;;28.23;87.83;154760.06;1709182;84;20197;-71
2022/08/30 03:13:30;;;;;;;;;;;;;;;28.24;87.45;154764.02;1709383;84;21225;-72
2022/08/30 03:15:56;;;;;;;;;;;;;;;28.28;86.56;154774.50;1709065;82;20331;-71
2022/08/30 03:18:23;;;;;;;;;;;;;;;28.22;85.81;154758.78;1709309;84;20169;-70
2022/08/30 03:20:50;;;;;;;;;;;;;;;28.06;86.21;154718.00;1709204;84;20225;-71
2022/08/30 03:23:17;;;;;;;;;;;;;;;28.09;86.57;154724.58;1709134;84;20253;-71
2022/08/30 03:25:44;;;;;;;;;;;;;;;28.25;86.38;154765.31;1709318;84;22162;-72
2022/08/30 03:28:10;;;;;;;;;;;;;;;28.41;84.90;154806.03;1709083;84;20212;-71
2022/08/30 03:30:37;;;;;;;;;;;;;;;28.36;83.88;154792.88;1704682;82;20236;-71
2022/08/30 03:33:04;;;;;;;;;;;;;;;28.22;84.30;154758.78;1698494;84;20616;-73
2022/08/30 03:35:31;;;;;;;;;;;;;;;28.23;83.94;154761.39;1698705;84;20500;-72
2022/08/30 03:37:58;;;;;;;;;;;;;;;28.20;83.43;154753.53;1698728;84;21138;-70
2022/08/30 03:40:25;;;;;;;;;;;;;;;28.06;83.57;154716.72;1698746;84;20176;-72
2022/08/30 03:42:51;;;;;;;;;;;;;;;28.00;84.67;154702.28;1698574;83;20408;-73
2022/08/30 03:45:18;;;;;;;;;;;;;;;28.05;84.26;154714.09;1698759;84;21362;-71
2022/08/30 03:47:45;;;;;;;;;;;;;;;28.08;84.08;154721.97;1698755;84;20176;-72
2022/08/30 03:50:13;;;;;;;;;;;;;;;28.17;83.67;154745.61;1727574;83;21229;-71
2022/08/30 03:52:39;;;;;;;;;;;;;;;28.14;83.21;154737.69;1728274;82;20204;-71
2022/08/30 03:55:07;;;;;;;;;;;;;;;28.14;83.85;154737.69;1727986;83;20185;-72
2022/08/30 03:57:34;;;;;;;;;;;;;;;28.20;82.99;154753.53;1728013;82;20584;-70
2022/08/30 04:00:00;;;;;;;;;;;;;;;28.20;82.76;154752.19;1727791;83;20176;-64
2022/08/30 04:02:27;;;;;;;;;;;;;;;28.22;83.25;154758.78;1728100;82;21509;-72
2022/08/30 04:04:56;;;;;;;;;;;;;;;28.30;82.92;154779.75;1723675;83;20208;-74
2022/08/30 04:07:24;;;;;;;;;;;;;;;28.51;83.12;154832.25;1698519;83;20171;-74
2022/08/30 04:09:50;;;;;;;;;;;;;;;28.68;81.90;154874.27;1698549;84;20208;-70
2022/08/30 04:12:19;;;;;;;;;;;;;;;28.81;81.46;154908.42;1693741;84;20465;-64
2022/08/30 04:14:45;;;;;;;;;;;;;;;28.92;80.82;154934.70;1668840;85;21055;-64
2022/08/30 04:17:14;;;;;;;;;;;;;;;28.94;80.24;154941.23;1668654;86;20180;-64
2022/08/30 04:19:40;;;;;;;;;;;;;;;28.93;80.37;154937.33;1634296;87;20626;-71
2022/08/30 04:22:07;;;;;;;;;;;;;;;29.00;80.48;154955.69;1634108;87;20467;-60
2022/08/30 04:24:37;;;;;;;;;;;;;;;29.15;80.09;154995.09;1634398;87;20150;-61
2022/08/30 04:27:04;;;;;;;;;;;;;;;29.33;79.19;155039.75;1633976;87;21311;-61
2022/08/30 04:29:32;;;;;;;;;;;;;;;29.41;78.50;155060.78;1607056;89;20165;-61
2022/08/30 04:31:59;;;;;;;;;;;;;;;29.48;78.42;155076.53;1637639;87;20235;-62
2022/08/30 04:34:26;;;;;;;;;;;;;;;29.51;78.37;155084.41;1638889;87;20200;-61
2022/08/30 04:36:52;;;;;;;;;;;;;;;29.50;78.65;155083.13;1674587;85;20517;-70
2022/08/30 04:39:19;;;;;;;;;;;;;;;29.55;78.81;155094.95;1638585;87;21154;-60
2022/08/30 04:41:47;;;;;;;;;;;;;;;29.67;78.55;155126.44;1645956;85;20183;-60
2022/08/30 04:44:14;;;;;;;;;;;;;;;29.79;78.40;155156.66;1638654;87;20224;-61
2022/08/30 04:46:41;;;;;;;;;;;;;;;29.97;77.86;155202.66;1639211;86;20954;-62
2022/08/30 04:49:08;;;;;;;;;;;;;;;30.12;77.41;155239.45;1707471;82;20184;-63
2022/08/30 04:51:35;;;;;;;;;;;;;;;30.15;77.13;155247.33;1736416;82;22482;-64
2022/08/30 04:54:01;;;;;;;;;;;;;;;30.18;77.53;155255.25;1736685;82;20187;-70
2022/08/30 04:56:28;;;;;;;;;;;;;;;30.25;77.28;155273.63;1736719;82;20207;-71
2022/08/30 04:58:55;;;;;;;;;;;;;;;30.37;77.08;155302.50;1736505;82;20191;-71
2022/08/30 05:01:25;;;;;;;;;;;;;;;30.58;76.71;155357.69;1736586;82;20369;-70
2022/08/30 05:03:52;;;;;;;;;;;;;;;30.79;75.57;155409.03;1736190;82;21213;-62
2022/08/30 05:06:19;;;;;;;;;;;;;;;30.83;74.90;155419.53;1717036;82;20454;-70
2022/08/30 05:08:46;;;;;;;;;;;;;;;30.83;74.62;155420.81;1704841;82;20199;-70
2022/08/30 05:11:13;;;;;;;;;;;;;;;30.87;74.94;155431.38;1704677;84;20784;-70
2022/08/30 05:13:40;;;;;;;;;;;;;;;31.02;74.66;155468.13;1704551;84;20202;-61
2022/08/30 05:16:08;;;;;;;;;;;;;;;31.29;74.16;155536.56;1703428;84;21195;-71
2022/08/30 05:18:35;;;;;;;;;;;;;;;31.59;72.68;155612.80;1703441;84;20198;-71
2022/08/30 05:21:10;;;;;;;;;;;;;;;31.79;71.59;155662.81;1702783;84;20245;-70
2022/08/30 05:23:38;;;;;;;;;;;;;;;31.88;70.78;155686.45;1703111;84;20201;-70
2022/08/30 05:26:10;;;;;;;;;;;;;;;31.98;70.60;155712.78;1702825;84;20197;-71
2022/08/30 05:28:37;;;;;;;;;;;;;;;32.16;70.00;155757.45;1703680;84;21875;-69
2022/08/30 05:31:17;;;;;;;;;;;;;;;32.44;68.50;155828.55;1700269;83;20510;-70
2022/08/30 05:33:44;;;;;;;;;;;;;;;32.70;66.41;155895.59;1693476;84;20187;-70
2022/08/30 05:36:11;;;;;;;;;;;;;;;32.94;64.17;155954.87;1693459;84;20202;-69
2022/08/30 05:38:38;;;;;;;;;;;;;;;33.23;61.52;156028.53;1693495;84;20206;-70
2022/08/30 05:41:05;;;;;;;;;;;;;;;33.70;59.52;156149.62;1693649;84;21085;-70
2022/08/30 05:43:32;;;;;;;;;;;;;;;34.41;56.92;156330.02;1693337;84;20548;-71
2022/08/30 05:46:00;;;;;;;;;;;;;;;35.05;54.68;156492.09;1693201;84;20207;-71
2022/08/30 05:48:27;;;;;;;;;;;;;;;35.59;52.71;156629.09;1702486;83;20097;-72
2022/08/30 05:51:03;;;;;;;;;;;;;;;36.01;50.99;156735.78;1728082;82;20232;-70
2022/08/30 05:53:29;;;;;;;;;;;;;;;36.21;50.27;156787.23;1700277;83;21828;-70
2022/08/30 05:55:56;;;;;;;;;;;;;;;36.31;49.82;156810.94;1690824;84;20230;-70
2022/08/30 05:58:23;;;;;;;;;;;;;;;36.35;49.49;156821.45;1695446;83;20203;-70
2022/08/30 06:00:50;;;;;;;;;;;;;;;36.43;49.33;156842.58;1688520;84;20188;-63
2022/08/30 06:03:16;;;;;;;;;;;;;;;36.50;49.00;156861.00;1685636;83;20203;-63
2022/08/30 06:05:43;;;;;;;;;;;;;;;36.53;48.38;156868.95;1698888;83;21145;-63
2022/08/30 06:08:10;;;;;;;;;;;;;;;36.52;48.13;156865.03;1698437;83;20236;-62
2022/08/30 06:10:37;;;;;;;;;;;;;;;36.48;48.20;156855.75;1696364;83;20170;-62
2022/08/30 06:13:04;;;;;;;;;;;;;;;36.40;47.56;156834.67;1697471;82;20226;-62
2022/08/30 06:15:31;;;;;;;;;;;;;;;36.26;47.27;156800.41;1695962;83;20515;-70
2022/08/30 06:17:58;;;;;;;;;;;;;;;36.24;46.37;156793.78;1691545;83;21120;-71
2022/08/30 06:20:24;;;;;;;;;;;;;;;36.28;45.16;156805.66;1695232;83;20500;-70
2022/08/30 06:22:51;;;;;;;;;;;;;;;36.25;44.24;156797.77;1694988;83;20202;-69
2022/08/30 06:25:18;;;;;;;;;;;;;;;36.17;44.34;156776.70;1696125;83;20345;-70
2022/08/30 06:27:44;;;;;;;;;;;;;;;36.15;44.69;156771.44;1695901;83;20130;-69
2022/08/30 06:30:12;;;;;;;;;;;;;;;36.26;44.66;156800.41;1693042;84;21145;-70
2022/08/30 06:32:38;;;;;;;;;;;;;;;36.42;44.25;156839.94;1708084;82;20295;-70
2022/08/30 06:35:06;;;;;;;;;;;;;;;36.53;43.24;156868.95;1714823;82;20309;-71
2022/08/30 06:37:33;;;;;;;;;;;;;;;36.58;42.77;156879.48;1711785;82;20816;-70
2022/08/30 06:40:01;;;;;;;;;;;;;;;36.52;42.25;156866.31;1705278;83;20216;-62
2022/08/30 06:42:30;;;;;;;;;;;;;;;36.51;42.14;156863.64;1689974;83;21048;-63
2022/08/30 06:44:59;;;;;;;;;;;;;;;36.55;41.64;156872.94;1662235;83;20210;-62
2022/08/30 06:47:27;;;;;;;;;;;;;;;36.65;40.97;156897.97;1688533;83;20229;-62
2022/08/30 06:49:54;;;;;;;;;;;;;;;36.75;40.15;156924.31;1693795;83;20500;-62
2022/08/30 06:52:21;;;;;;;;;;;;;;;36.76;39.38;156926.94;1692332;83;20445;-62
2022/08/30 06:54:48;;;;;;;;;;;;;;;36.70;39.46;156911.14;1703545;82;22805;-62
2022/08/30 06:57:15;;;;;;;;;;;;;;;36.68;38.63;156905.88;1700276;82;20224;-62
2022/08/30 06:59:41;;;;;;;;;;;;;;;36.74;38.36;156921.67;1699392;83;20511;-63
2022/08/30 07:02:08;;;;;;;;;;;;;;;36.90;37.95;156961.22;1700285;82;20186;-62
2022/08/30 07:04:35;;;;;;;;;;;;;;;37.02;37.94;156992.88;1697680;83;20539;-62
2022/08/30 07:07:02;;;;;;;;;;;;;;;37.11;37.17;157015.28;1702935;82;21068;-62
2022/08/30 07:09:29;;;;;;;;;;;;;;;37.08;36.79;157008.72;1701348;82;20311;-61
2022/08/30 07:12:00;;;;;;;;;;;;;;;37.06;36.72;157003.45;1707845;82;20489;-62
2022/08/30 07:14:27;;;;;;;;;;;;;;;37.16;37.09;157027.16;1701982;82;20168;-63
2022/08/30 07:16:53;;;;;;;;;;;;;;;37.34;37.03;157074.63;1699997;82;20473;-63
2022/08/30 07:19:21;;;;;;;;;;;;;;;37.45;37.50;157100.97;1701590;83;21085;-71
2022/08/30 07:21:49;;;;;;;;;;;;;;;37.48;37.91;157108.92;1701639;82;20534;-70
2022/08/30 07:24:16;;;;;;;;;;;;;;;37.47;37.96;157106.23;1702264;82;20187;-70
2022/08/30 07:26:48;;;;;;;;;;;;;;;37.43;37.92;157095.70;1696416;83;20977;-71
2022/08/30 07:29:16;;;;;;;;;;;;;;;37.49;37.37;157112.89;1704015;82;20174;-71
2022/08/30 07:31:43;;;;;;;;;;;;;;;37.59;36.64;157137.94;1694362;82;21200;-71
2022/08/30 07:34:10;;;;;;;;;;;;;;;37.56;36.08;157130.05;1679570;84;20662;-62
2022/08/30 07:36:37;;;;;;;;;;;;;;;37.44;36.20;157099.67;1704040;83;20209;-62
2022/08/30 07:39:04;;;;;;;;;;;;;;;37.43;35.55;157095.70;1704027;82;20250;-62
2022/08/30 07:41:34;;;;;;;;;;;;;;;37.44;35.09;157098.33;1701999;82;20223;-62
2022/08/30 07:44:02;;;;;;;;;;;;;;;37.45;34.65;157100.97;1706350;82;21160;-62
2022/08/30 07:46:29;;;;;;;;;;;;;;;37.51;33.11;157116.88;1705730;82;20396;-62
2022/08/30 07:48:58;;;;;;;;;;;;;;;37.47;32.16;157106.23;1705022;82;20293;-61
2022/08/30 07:51:25;;;;;;;;;;;;;;;37.44;31.93;157098.33;1702068;84;20158;-70
2022/08/30 07:53:52;;;;;;;;;;;;;;;37.47;31.51;157107.58;1703006;84;20191;-69
2022/08/30 07:56:19;;;;;;;;;;;;;;;37.59;31.68;157137.94;1711583;82;21268;-70
2022/08/30 07:58:47;;;;;;;;;;;;;;;37.69;31.54;157164.34;1713336;82;20210;-70
2022/08/30 08:01:14;;;;;;;;;;;;;;;37.67;31.58;157159.02;1705491;82;20240;-70
2022/08/30 08:03:41;;;;;;;;;;;;;;;37.59;31.68;157136.66;1709985;82;20287;-69
2022/08/30 08:06:09;;;;;;;;;;;;;;;37.51;32.07;157116.88;1708069;82;20495;-69
2022/08/30 08:08:36;;;;;;;;;;;;;;;37.51;32.10;157116.88;1712030;82;21139;-70
2022/08/30 08:11:13;;;;;;;;;;;;;;;37.55;32.97;157128.70;1705252;82;20313;-70
2022/08/30 08:13:41;;;;;;;;;;;;;;;37.63;32.95;157148.48;1720653;82;20222;-62
2022/08/30 08:16:07;;;;;;;;;;;;;;;37.69;33.00;157164.34;1703725;82;20590;-61
2022/08/30 08:18:34;;;;;;;;;;;;;;;37.62;33.54;157145.84;1718212;82;20948;-61
2022/08/30 08:21:01;;;;;;;;;;;;;;;37.54;34.13;157124.78;1711420;82;21260;-61
2022/08/30 08:23:28;;;;;;;;;;;;;;;37.44;34.46;157099.67;1710812;81;20138;-62
2022/08/30 08:25:55;;;;;;;;;;;;;;;37.45;35.05;157100.97;1715220;82;20510;-70
2022/08/30 08:28:22;;;;;;;;;;;;;;;37.48;35.11;157108.92;1719600;82;20206;-71
2022/08/30 08:30:49;;;;;;;;;;;;;;;37.39;35.77;157087.80;1703969;82;20214;-62
2022/08/30 08:33:16;;;;;;;;;;;;;;;37.32;35.69;157069.36;1717198;82;21278;-61
2022/08/30 08:35:43;;;;;;;;;;;;;;;37.34;35.96;157074.63;1712580;82;20166;-69
2022/08/30 08:38:10;;;;;;;;;;;;;;;37.36;36.02;157079.89;1712484;82;20182;-71
2022/08/30 08:41:09;;;;;;;;;;;;;;;37.39;35.69;157087.80;1714636;82;20172;-72
2022/08/30 08:43:36;;;;;;;;;;;;;;;37.47;34.83;157107.58;1712370;82;20199;-71
2022/08/30 08:46:24;;;;;;;;;;;;;;;37.54;34.31;157124.78;1710846;82;21249;-69
2022/08/30 08:48:57;;;;;;;;;;;;;;;37.50;34.28;157115.53;1706273;82;20494;-69
2022/08/30 08:54:31;;;;;;;;;;;;;;;37.48;35.16;157108.92;1709043;82;20238;-71
2022/08/30 08:56:59;;;;;;;;;;;;;;;37.35;35.77;157077.27;1707676;82;20185;-70
2022/08/30 08:59:26;;;;;;;;;;;;;;;37.20;35.96;157037.70;1724303;81;21213;-70
2022/08/30 09:01:54;;;;;;;;;;;;;;;37.11;35.43;157016.63;1712146;82;20337;-72
2022/08/30 09:04:23;;;;;;;;;;;;;;;37.11;34.93;157016.63;1693396;83;20215;-70
2022/08/30 09:06:56;;;;;;;;;;;;;;;37.22;34.94;157042.97;1688913;84;20183;-72
2022/08/30 09:09:32;;;;;;;;;;;;;;;37.31;34.89;157066.72;1687513;83;20186;-71
2022/08/30 09:11:59;;;;;;;;;;;;;;;37.33;35.79;157070.66;1677771;84;21245;-73
2022/08/30 09:14:44;;;;;;;;;;;;;;;37.21;36.37;157041.67;1659804;85;20209;-70
2022/08/30 09:17:12;;;;;;;;;;;;;;;37.06;36.40;157003.45;1676175;83;20650;-71
2022/08/30 09:19:57;;;;;;;;;;;;;;;36.99;36.28;156986.27;1679994;84;20460;-71
2022/08/30 09:22:36;;;;;;;;;;;;;;;37.11;35.02;157015.28;1651325;85;20187;-71
2022/08/30 09:25:07;;;;;;;;;;;;;;;37.22;33.95;157042.97;1702255;82;21216;-71
2022/08/30 09:27:35;;;;;;;;;;;;;;;37.08;34.84;157008.72;1702944;83;20386;-70
2022/08/30 09:30:16;;;;;;;;;;;;;;;36.83;35.63;156945.42;1704264;82;20211;-70
2022/08/30 09:32:53;;;;;;;;;;;;;;;36.74;36.18;156921.67;1711000;82;20470;-72
2022/08/30 09:35:26;;;;;;;;;;;;;;;36.72;36.63;156916.41;1710105;82;20181;-71
2022/08/30 09:37:55;;;;;;;;;;;;;;;36.66;36.93;156901.89;1692061;83;21188;-73
2022/08/30 09:40:42;;;;;;;;;;;;;;;36.52;37.12;156866.31;1690976;83;20207;-71
2022/08/30 09:43:17;;;;;;;;;;;;;;;36.37;37.61;156826.78;1661806;85;20199;-70
2022/08/30 09:45:50;;;;;;;;;;;;;;;36.16;41.35;156772.72;1718280;82;20166;-69
2022/08/30 09:48:27;;;;;;;;;;;;;;;35.91;44.45;156709.45;1715450;82;20461;-71
2022/08/30 09:51:13;;;;;;;;;;;;;;;35.67;42.00;156650.16;1718324;82;21286;-71
2022/08/30 09:54:10;;;;;;;;;;;;;;;35.45;42.81;156593.48;1712090;82;20166;-70
2022/08/30 09:57:01;;;;;;;;;;;;;;;35.10;45.48;156505.25;1715431;82;20173;-69
2022/08/30 09:59:49;;;;;;;;;;;;;;;34.83;45.10;156436.73;1709256;82;20419;-70
2022/08/30 10:02:37;;;;;;;;;;;;;;;34.81;44.53;156431.42;1692616;83;20182;-62
2022/08/30 10:05:18;;;;;;;;;;;;;;;34.84;46.16;156439.37;1665387;85;21164;-62
2022/08/30 10:08:01;;;;;;;;;;;;;;;34.69;48.92;156399.86;1708553;82;20138;-61
2022/08/30 10:10:39;;;;;;;;;;;;;;;34.44;48.66;156336.63;1709696;82;20154;-71
2022/08/30 10:13:36;;;;;;;;;;;;;;;34.34;47.63;156310.27;1679232;84;20190;-70
2022/08/30 10:16:15;;;;;;;;;;;;;;;34.22;48.72;156281.33;1688849;83;20198;-69
2022/08/30 10:18:52;;;;;;;;;;;;;;;34.07;50.17;156241.81;1692976;83;21239;-71
2022/08/30 10:21:40;;;;;;;;;;;;;;;34.05;48.45;156237.91;1683290;83;20175;-71
2022/08/30 10:24:11;;;;;;;;;;;;;;;33.96;51.04;156215.52;1690977;83;20206;-70
2022/08/30 10:26:57;;;;;;;;;;;;;;;33.70;53.05;156148.34;1689799;83;20199;-70
2022/08/30 10:29:29;;;;;;;;;;;;;;;33.47;51.88;156089.09;1715862;82;20185;-62
2022/08/30 10:32:16;;;;;;;;;;;;;;;33.33;54.41;156053.53;1706820;82;21105;-62
2022/08/30 10:34:47;;;;;;;;;;;;;;;33.27;54.78;156039.03;1712787;82;20205;-61
2022/08/30 10:37:16;;;;;;;;;;;;;;;33.34;53.35;156057.50;1709654;82;20463;-61
2022/08/30 10:39:49;;;;;;;;;;;;;;;33.25;54.97;156033.78;1711711;81;20170;-61
2022/08/30 10:42:20;;;;;;;;;;;;;;;32.97;55.85;155962.75;1722142;82;20113;-62
2022/08/30 10:44:50;;;;;;;;;;;;;;;32.80;54.86;155920.59;1712494;82;22287;-62
2022/08/30 10:47:25;;;;;;;;;;;;;;;32.78;56.04;155915.33;1710328;82;20189;-69
2022/08/30 10:49:59;;;;;;;;;;;;;;;32.90;55.44;155944.34;1713131;82;20592;-71
2022/08/30 10:52:38;;;;;;;;;;;;;;;32.92;55.32;155949.59;1715083;82;20245;-62
2022/08/30 10:55:17;;;;;;;;;;;;;;;32.93;55.73;155952.23;1719185;82;20207;-62
2022/08/30 10:57:44;;;;;;;;;;;;;;;32.92;57.72;155949.59;1717615;82;21196;-71
2022/08/30 11:00:14;;;;;;;;;;;;;;;32.86;58.45;155936.41;1709941;82;20209;-70
2022/08/30 11:03:12;;;;;;;;;;;;;;;32.83;58.82;155927.19;1718063;82;20497;-70
2022/08/30 11:05:48;;;;;;;;;;;;;;;32.88;59.22;155940.38;1719761;82;20139;-62
2022/08/30 11:08:44;;;;;;;;;;;;;;;32.98;58.79;155965.37;1716382;82;20206;-61
2022/08/30 11:11:18;;;;;;;;;;;;;;;32.92;58.92;155949.59;1711359;82;21233;-62
2022/08/30 11:13:47;;;;;;;;;;;;;;;32.74;58.86;155903.53;1709456;82;20141;-62
2022/08/30 11:16:14;;;;;;;;;;;;;;;32.68;58.25;155889.05;1709906;82;20229;-62
2022/08/30 11:18:50;;;;;;;;;;;;;;;32.72;56.50;155899.56;1724587;82;20146;-62
2022/08/30 11:21:35;;;;;;;;;;;;;;;32.83;55.26;155928.53;1703276;83;20226;-62
2022/08/30 11:24:11;;;;;;;;;;;;;;;32.98;54.91;155965.37;1712479;82;21157;-62
2022/08/30 11:26:47;;;;;;;;;;;;;;;32.95;54.09;155957.50;1717415;82;20218;-61
2022/08/30 11:29:33;;;;;;;;;;;;;;;32.90;53.08;155944.34;1711770;82;20214;-62
2022/08/30 11:32:17;;;;;;;;;;;;;;;33.01;51.44;155973.27;1713611;82;20168;-61
2022/08/30 11:34:47;;;;;;;;;;;;;;;33.24;51.37;156032.50;1708053;82;20530;-61
2022/08/30 11:37:36;;;;;;;;;;;;;;;33.43;49.49;156081.20;1722685;82;20675;-62
2022/08/30 11:40:28;;;;;;;;;;;;;;;33.48;47.69;156091.72;1708488;82;20416;-62
2022/08/30 11:42:55;;;;;;;;;;;;;;;33.43;45.93;156081.20;1713405;82;20435;-61
2022/08/30 11:45:26;;;;;;;;;;;;;;;33.36;44.11;156062.75;1707564;82;20218;-61
2022/08/30 11:47:56;;;;;;;;;;;;;;;33.38;43.93;156068.02;1712461;82;20193;-62
2022/08/30 11:50:44;;;;;;;;;;;;;;;33.45;43.66;156083.84;1707011;82;21862;-61
2022/08/30 11:53:17;;;;;;;;;;;;;;;33.52;43.47;156103.58;1709021;82;20448;-62
2022/08/30 11:56:10;;;;;;;;;;;;;;;33.53;43.84;156104.92;1729153;82;20553;-62
2022/08/30 11:58:52;;;;;;;;;;;;;;;33.49;45.13;156095.69;1652993;84;20234;-62
2022/08/30 12:01:26;;;;;;;;;;;;;;;33.56;45.66;156114.09;1686599;83;21003;-61
2022/08/30 12:04:01;;;;;;;;;;;;;;;33.69;45.01;156147.00;1691085;84;21272;-63
2022/08/30 12:06:52;;;;;;;;;;;;;;;33.80;44.06;156173.34;1711355;82;20159;-62
2022/08/30 12:09:26;;;;;;;;;;;;;;;33.79;43.53;156170.72;1704492;82;20229;-61
2022/08/30 12:12:02;;;;;;;;;;;;;;;33.74;44.20;156157.56;1711809;82;20218;-61
2022/08/30 12:14:47;;;;;;;;;;;;;;;33.74;43.91;156157.56;1712140;82;20166;-61
2022/08/30 12:20:04;;;;;;;;;;;;;;;33.71;42.54;156152.31;1722070;82;20303;-62
2022/08/30 12:22:36;;;;;;;;;;;;;;;33.62;43.80;156128.59;1708460;82;20169;-61
2022/08/30 12:24:59;;;;;;;;;;;;;;;33.43;44.25;156079.91;1707761;82;20479;-63
2022/08/30 12:27:28;;;;;;;;;;;;;;;33.31;43.93;156048.27;1710898;81;20190;-62
2022/08/30 12:30:03;;;;;;;;;;;;;;;33.25;44.10;156035.12;1720357;82;21266;-72
2022/08/30 12:32:31;;;;;;;;;;;;;;;33.26;44.05;156037.75;1729185;81;20580;-72
2022/08/30 12:34:58;;;;;;;;;;;;;;;33.31;45.03;156049.61;1706698;82;20186;-73
2022/08/30 12:37:30;;;;;;;;;;;;;;;33.28;45.22;156041.72;1711414;82;20213;-72
2022/08/30 12:40:12;;;;;;;;;;;;;;;33.26;44.05;156036.41;1704396;82;20456;-72
2022/08/30 12:42:40;;;;;;;;;;;;;;;33.28;42.70;156043.00;1676202;83;21150;-72
2022/08/30 12:45:13;;;;;;;;;;;;;;;33.37;41.67;156065.38;1708249;82;20202;-72
2022/08/30 12:47:50;;;;;;;;;;;;;;;33.47;42.21;156089.09;1718084;82;20194;-72
2022/08/30 12:50:20;;;;;;;;;;;;;;;33.42;42.66;156078.58;1706296;82;20437;-70
2022/08/30 12:52:50;;;;;;;;;;;;;;;33.32;42.75;156050.89;1711658;82;20272;-70
2022/08/30 12:55:22;;;;;;;;;;;;;;;33.24;43.76;156031.16;1702578;82;21091;-70
2022/08/30 12:58:01;;;;;;;;;;;;;;;33.26;42.45;156036.41;1712801;82;20478;-71